sensor_id;sensor_type;location;lat;lon;timestamp;P1;durP1;ratioP1;P2;durP2;ratioP2
13252;SDS011;6693;54.370;10.132;2023-01-30T00:00:19;19.40;;;10.18;;
13252;SDS011;6693;54.370;10.132;2023-01-30T00:01:21;19.23;;;9.18;;
13252;SDS011;6693;54.370;10.132;2023-01-30T00:02:26;22.48;;;8.93;;
13252;SDS011;6693;54.370;10.132;2023-01-30T00:03:26;25.05;;;10.60;;
13252;SDS011;6693;54.370;10.132;2023-01-30T00:04:30;20.70;;;9.05;;
13252;SDS011;6693;54.370;10.132;2023-01-30T00:05:30;23.48;;;10.40;;
13252;SDS011;6693;54.370;10.132;2023-01-30T00:06:33;23.30;;;10.88;;
13252;SDS011;6693;54.370;10.132;2023-01-30T00:07:37;24.80;;;12.57;;
13252;SDS011;6693;54.370;10.132;2023-01-30T00:08:40;21.05;;;9.93;;
13252;SDS011;6693;54.370;10.132;2023-01-30T00:09:40;19.80;;;8.68;;
13252;SDS011;6693;54.370;10.132;2023-01-30T00:10:44;22.30;;;10.45;;
13252;SDS011;6693;54.370;10.132;2023-01-30T00:11:45;23.13;;;9.95;;
13252;SDS011;6693;54.370;10.132;2023-01-30T00:12:48;22.73;;;11.25;;
13252;SDS011;6693;54.370;10.132;2023-01-30T00:13:49;25.52;;;12.13;;
13252;SDS011;6693;54.370;10.132;2023-01-30T00:14:53;23.13;;;10.80;;
13252;SDS011;6693;54.370;10.132;2023-01-30T00:15:53;22.17;;;12.18;;
13252;SDS011;6693;54.370;10.132;2023-01-30T00:16:56;25.95;;;11.25;;
13252;SDS011;6693;54.370;10.132;2023-01-30T00:17:59;21.55;;;10.00;;
13252;SDS011;6693;54.370;10.132;2023-01-30T00:19:00;22.38;;;9.80;;
13252;SDS011;6693;54.370;10.132;2023-01-30T00:20:04;24.98;;;9.45;;
13252;SDS011;6693;54.370;10.132;2023-01-30T00:21:05;21.05;;;10.57;;
13252;SDS011;6693;54.370;10.132;2023-01-30T00:22:10;23.02;;;9.55;;
13252;SDS011;6693;54.370;10.132;2023-01-30T00:23:13;19.95;;;11.25;;
13252;SDS011;6693;54.370;10.132;2023-01-30T00:24:16;22.60;;;10.35;;
13252;SDS011;6693;54.370;10.132;2023-01-30T00:25:16;25.20;;;8.02;;
13252;SDS011;6693;54.370;10.132;2023-01-30T00:26:20;24.52;;;10.52;;
13252;SDS011;6693;54.370;10.132;2023-01-30T00:27:20;23.73;;;10.15;;
13252;SDS011;6693;54.370;10.132;2023-01-30T00:28:23;26.00;;;10.50;;
13252;SDS011;6693;54.370;10.132;2023-01-30T00:29:24;26.27;;;11.57;;
13252;SDS011;6693;54.370;10.132;2023-01-30T00:30:28;22.92;;;10.68;;
13252;SDS011;6693;54.370;10.132;2023-01-30T00:31:29;26.15;;;9.25;;
13252;SDS011;6693;54.370;10.132;2023-01-30T00:32:32;23.15;;;10.20;;
13252;SDS011;6693;54.370;10.132;2023-01-30T00:33:32;26.20;;;12.32;;
13252;SDS011;6693;54.370;10.132;2023-01-30T00:34:37;27.40;;;11.50;;
13252;SDS011;6693;54.370;10.132;2023-01-30T00:35:41;24.83;;;11.00;;
13252;SDS011;6693;54.370;10.132;2023-01-30T00:36:45;26.33;;;10.95;;
13252;SDS011;6693;54.370;10.132;2023-01-30T00:37:45;26.55;;;11.77;;
13252;SDS011;6693;54.370;10.132;2023-01-30T00:38:51;22.48;;;10.23;;
13252;SDS011;6693;54.370;10.132;2023-01-30T00:39:54;26.88;;;10.93;;
13252;SDS011;6693;54.370;10.132;2023-01-30T00:40:55;20.95;;;9.35;;
13252;SDS011;6693;54.370;10.132;2023-01-30T00:41:58;22.95;;;9.52;;
13252;SDS011;6693;54.370;10.132;2023-01-30T00:43:14;25.30;;;12.02;;
13252;SDS011;6693;54.370;10.132;2023-01-30T00:44:31;25.90;;;10.38;;
13252;SDS011;6693;54.370;10.132;2023-01-30T00:45:47;25.05;;;10.93;;
13252;SDS011;6693;54.370;10.132;2023-01-30T00:47:03;25.30;;;10.63;;
13252;SDS011;6693;54.370;10.132;2023-01-30T00:48:07;22.48;;;10.40;;
13252;SDS011;6693;54.370;10.132;2023-01-30T00:49:08;21.70;;;9.50;;
13252;SDS011;6693;54.370;10.132;2023-01-30T00:50:11;23.38;;;9.52;;
13252;SDS011;6693;54.370;10.132;2023-01-30T00:51:12;22.05;;;10.52;;
13252;SDS011;6693;54.370;10.132;2023-01-30T00:52:15;23.98;;;9.38;;
13252;SDS011;6693;54.370;10.132;2023-01-30T00:53:16;27.25;;;9.45;;
13252;SDS011;6693;54.370;10.132;2023-01-30T00:54:21;25.90;;;10.38;;
13252;SDS011;6693;54.370;10.132;2023-01-30T00:55:22;24.20;;;11.05;;
13252;SDS011;6693;54.370;10.132;2023-01-30T00:56:25;22.65;;;10.10;;
13252;SDS011;6693;54.370;10.132;2023-01-30T00:57:26;25.95;;;9.98;;
13252;SDS011;6693;54.370;10.132;2023-01-30T00:58:29;24.70;;;11.75;;
13252;SDS011;6693;54.370;10.132;2023-01-30T00:59:29;24.65;;;10.70;;
13252;SDS011;6693;54.370;10.132;2023-01-30T01:00:33;26.35;;;10.63;;
13252;SDS011;6693;54.370;10.132;2023-01-30T01:01:33;25.33;;;10.20;;
13252;SDS011;6693;54.370;10.132;2023-01-30T01:02:36;24.15;;;9.05;;
13252;SDS011;6693;54.370;10.132;2023-01-30T01:03:37;26.48;;;9.27;;
13252;SDS011;6693;54.370;10.132;2023-01-30T01:04:40;19.73;;;9.60;;
13252;SDS011;6693;54.370;10.132;2023-01-30T01:05:42;25.63;;;10.75;;
13252;SDS011;6693;54.370;10.132;2023-01-30T01:06:45;22.45;;;9.77;;
13252;SDS011;6693;54.370;10.132;2023-01-30T01:07:46;19.63;;;9.10;;
13252;SDS011;6693;54.370;10.132;2023-01-30T01:08:49;23.08;;;9.60;;
13252;SDS011;6693;54.370;10.132;2023-01-30T01:09:52;24.33;;;9.32;;
13252;SDS011;6693;54.370;10.132;2023-01-30T01:10:55;20.75;;;10.10;;
13252;SDS011;6693;54.370;10.132;2023-01-30T01:11:56;22.08;;;9.60;;
13252;SDS011;6693;54.370;10.132;2023-01-30T01:12:59;20.80;;;8.93;;
13252;SDS011;6693;54.370;10.132;2023-01-30T01:14:00;18.33;;;8.23;;
13252;SDS011;6693;54.370;10.132;2023-01-30T01:15:05;21.15;;;8.55;;
13252;SDS011;6693;54.370;10.132;2023-01-30T01:16:06;20.50;;;9.48;;
13252;SDS011;6693;54.370;10.132;2023-01-30T01:17:09;21.80;;;9.75;;
13252;SDS011;6693;54.370;10.132;2023-01-30T01:18:13;25.15;;;11.40;;
13252;SDS011;6693;54.370;10.132;2023-01-30T01:19:13;24.95;;;9.18;;
13252;SDS011;6693;54.370;10.132;2023-01-30T01:20:17;18.48;;;9.88;;
13252;SDS011;6693;54.370;10.132;2023-01-30T01:21:19;18.65;;;7.95;;
13252;SDS011;6693;54.370;10.132;2023-01-30T01:22:22;24.38;;;9.32;;
13252;SDS011;6693;54.370;10.132;2023-01-30T01:23:22;17.02;;;7.43;;
13252;SDS011;6693;54.370;10.132;2023-01-30T01:24:26;19.27;;;8.20;;
13252;SDS011;6693;54.370;10.132;2023-01-30T01:25:29;18.85;;;7.55;;
13252;SDS011;6693;54.370;10.132;2023-01-30T01:26:32;15.18;;;6.47;;
13252;SDS011;6693;54.370;10.132;2023-01-30T01:27:33;21.70;;;7.50;;
13252;SDS011;6693;54.370;10.132;2023-01-30T01:28:36;17.15;;;7.78;;
13252;SDS011;6693;54.370;10.132;2023-01-30T01:29:37;17.77;;;7.80;;
13252;SDS011;6693;54.370;10.132;2023-01-30T01:30:40;19.50;;;8.30;;
13252;SDS011;6693;54.370;10.132;2023-01-30T01:31:40;19.27;;;7.50;;
13252;SDS011;6693;54.370;10.132;2023-01-30T01:32:44;16.80;;;6.53;;
13252;SDS011;6693;54.370;10.132;2023-01-30T01:33:45;14.15;;;6.65;;
13252;SDS011;6693;54.370;10.132;2023-01-30T01:34:48;16.70;;;7.32;;
13252;SDS011;6693;54.370;10.132;2023-01-30T01:35:49;19.25;;;9.85;;
13252;SDS011;6693;54.370;10.132;2023-01-30T01:36:52;14.10;;;5.80;;
13252;SDS011;6693;54.370;10.132;2023-01-30T01:37:52;17.40;;;6.72;;
13252;SDS011;6693;54.370;10.132;2023-01-30T01:38:56;15.70;;;6.68;;
13252;SDS011;6693;54.370;10.132;2023-01-30T01:39:56;14.98;;;6.32;;
13252;SDS011;6693;54.370;10.132;2023-01-30T01:41:16;12.80;;;6.45;;
13252;SDS011;6693;54.370;10.132;2023-01-30T01:42:19;16.70;;;6.40;;
13252;SDS011;6693;54.370;10.132;2023-01-30T01:43:20;14.35;;;6.28;;
13252;SDS011;6693;54.370;10.132;2023-01-30T01:44:24;15.57;;;6.60;;
13252;SDS011;6693;54.370;10.132;2023-01-30T01:45:25;14.52;;;6.10;;
13252;SDS011;6693;54.370;10.132;2023-01-30T01:46:29;14.70;;;6.03;;
13252;SDS011;6693;54.370;10.132;2023-01-30T01:47:31;15.63;;;6.00;;
13252;SDS011;6693;54.370;10.132;2023-01-30T01:48:37;11.65;;;5.57;;
13252;SDS011;6693;54.370;10.132;2023-01-30T01:49:41;12.45;;;5.57;;
13252;SDS011;6693;54.370;10.132;2023-01-30T01:50:45;12.82;;;5.68;;
13252;SDS011;6693;54.370;10.132;2023-01-30T01:51:48;16.08;;;6.15;;
13252;SDS011;6693;54.370;10.132;2023-01-30T01:52:54;9.80;;;4.90;;
13252;SDS011;6693;54.370;10.132;2023-01-30T01:55:01;8.23;;;3.88;;
13252;SDS011;6693;54.370;10.132;2023-01-30T01:56:02;8.10;;;4.40;;
13252;SDS011;6693;54.370;10.132;2023-01-30T01:57:10;13.52;;;4.43;;
13252;SDS011;6693;54.370;10.132;2023-01-30T01:58:15;11.70;;;5.10;;
13252;SDS011;6693;54.370;10.132;2023-01-30T01:59:22;9.20;;;4.53;;
13252;SDS011;6693;54.370;10.132;2023-01-30T02:00:26;13.73;;;6.10;;
13252;SDS011;6693;54.370;10.132;2023-01-30T02:01:29;8.63;;;4.05;;
13252;SDS011;6693;54.370;10.132;2023-01-30T02:02:33;11.02;;;4.50;;
13252;SDS011;6693;54.370;10.132;2023-01-30T02:03:34;9.77;;;3.70;;
13252;SDS011;6693;54.370;10.132;2023-01-30T02:04:41;9.63;;;4.90;;
13252;SDS011;6693;54.370;10.132;2023-01-30T02:06:00;8.73;;;3.35;;
13252;SDS011;6693;54.370;10.132;2023-01-30T02:07:04;9.70;;;3.40;;
13252;SDS011;6693;54.370;10.132;2023-01-30T02:08:06;10.30;;;3.95;;
13252;SDS011;6693;54.370;10.132;2023-01-30T02:09:10;9.77;;;4.72;;
13252;SDS011;6693;54.370;10.132;2023-01-30T02:10:13;9.23;;;4.85;;
13252;SDS011;6693;54.370;10.132;2023-01-30T02:11:19;13.15;;;4.82;;
13252;SDS011;6693;54.370;10.132;2023-01-30T02:12:24;9.95;;;4.03;;
13252;SDS011;6693;54.370;10.132;2023-01-30T02:13:27;9.65;;;3.90;;
13252;SDS011;6693;54.370;10.132;2023-01-30T02:14:28;9.27;;;4.35;;
13252;SDS011;6693;54.370;10.132;2023-01-30T02:15:32;11.40;;;3.35;;
13252;SDS011;6693;54.370;10.132;2023-01-30T02:16:34;9.82;;;3.20;;
13252;SDS011;6693;54.370;10.132;2023-01-30T02:17:37;9.63;;;3.95;;
13252;SDS011;6693;54.370;10.132;2023-01-30T02:18:38;8.50;;;3.47;;
13252;SDS011;6693;54.370;10.132;2023-01-30T02:19:45;10.00;;;3.80;;
13252;SDS011;6693;54.370;10.132;2023-01-30T02:20:56;7.00;;;3.40;;
13252;SDS011;6693;54.370;10.132;2023-01-30T02:22:17;8.15;;;3.13;;
13252;SDS011;6693;54.370;10.132;2023-01-30T02:23:38;11.35;;;3.17;;
13252;SDS011;6693;54.370;10.132;2023-01-30T02:26:44;9.07;;;2.88;;
13252;SDS011;6693;54.370;10.132;2023-01-30T02:27:56;11.75;;;3.40;;
13252;SDS011;6693;54.370;10.132;2023-01-30T02:29:21;7.55;;;2.88;;
13252;SDS011;6693;54.370;10.132;2023-01-30T02:30:40;6.45;;;2.72;;
13252;SDS011;6693;54.370;10.132;2023-01-30T02:31:46;9.43;;;3.55;;
13252;SDS011;6693;54.370;10.132;2023-01-30T02:32:50;8.13;;;3.03;;
13252;SDS011;6693;54.370;10.132;2023-01-30T02:34:01;8.60;;;2.95;;
13252;SDS011;6693;54.370;10.132;2023-01-30T02:35:12;5.45;;;1.85;;
13252;SDS011;6693;54.370;10.132;2023-01-30T02:36:23;5.05;;;1.85;;
13252;SDS011;6693;54.370;10.132;2023-01-30T02:37:30;6.55;;;1.90;;
13252;SDS011;6693;54.370;10.132;2023-01-30T02:38:40;5.93;;;2.03;;
13252;SDS011;6693;54.370;10.132;2023-01-30T02:39:47;4.30;;;1.38;;
13252;SDS011;6693;54.370;10.132;2023-01-30T02:40:58;6.22;;;1.48;;
13252;SDS011;6693;54.370;10.132;2023-01-30T02:42:03;4.75;;;1.73;;
13252;SDS011;6693;54.370;10.132;2023-01-30T02:43:12;4.80;;;2.15;;
13252;SDS011;6693;54.370;10.132;2023-01-30T02:44:16;6.32;;;1.90;;
13252;SDS011;6693;54.370;10.132;2023-01-30T02:45:25;4.50;;;1.20;;
13252;SDS011;6693;54.370;10.132;2023-01-30T02:46:35;7.60;;;1.52;;
13252;SDS011;6693;54.370;10.132;2023-01-30T02:47:43;6.03;;;1.80;;
13252;SDS011;6693;54.370;10.132;2023-01-30T02:48:46;4.20;;;1.02;;
13252;SDS011;6693;54.370;10.132;2023-01-30T02:49:53;5.22;;;1.45;;
13252;SDS011;6693;54.370;10.132;2023-01-30T02:50:57;6.32;;;1.27;;
13252;SDS011;6693;54.370;10.132;2023-01-30T02:52:02;9.07;;;1.30;;
13252;SDS011;6693;54.370;10.132;2023-01-30T02:53:06;3.60;;;0.68;;
13252;SDS011;6693;54.370;10.132;2023-01-30T02:54:10;4.63;;;0.60;;
13252;SDS011;6693;54.370;10.132;2023-01-30T02:56:20;9.30;;;1.50;;
13252;SDS011;6693;54.370;10.132;2023-01-30T02:57:24;7.18;;;1.20;;
13252;SDS011;6693;54.370;10.132;2023-01-30T02:58:25;3.92;;;0.90;;
13252;SDS011;6693;54.370;10.132;2023-01-30T02:59:32;6.03;;;1.25;;
13252;SDS011;6693;54.370;10.132;2023-01-30T03:00:41;8.40;;;0.45;;
13252;SDS011;6693;54.370;10.132;2023-01-30T03:02:08;7.18;;;1.50;;
13252;SDS011;6693;54.370;10.132;2023-01-30T03:03:17;5.38;;;0.60;;
13252;SDS011;6693;54.370;10.132;2023-01-30T03:04:36;5.15;;;0.98;;
13252;SDS011;6693;54.370;10.132;2023-01-30T03:07:24;6.78;;;1.60;;
13252;SDS011;6693;54.370;10.132;2023-01-30T03:08:29;8.63;;;1.30;;
13252;SDS011;6693;54.370;10.132;2023-01-30T03:09:36;6.07;;;1.15;;
13252;SDS011;6693;54.370;10.132;2023-01-30T03:10:46;8.35;;;1.92;;
13252;SDS011;6693;54.370;10.132;2023-01-30T03:11:56;6.85;;;1.45;;
13252;SDS011;6693;54.370;10.132;2023-01-30T03:13:01;10.32;;;2.25;;
13252;SDS011;6693;54.370;10.132;2023-01-30T03:14:08;8.73;;;0.80;;
13252;SDS011;6693;54.370;10.132;2023-01-30T03:15:16;6.95;;;1.35;;
13252;SDS011;6693;54.370;10.132;2023-01-30T03:16:23;10.15;;;1.40;;
13252;SDS011;6693;54.370;10.132;2023-01-30T03:17:28;8.80;;;1.65;;
13252;SDS011;6693;54.370;10.132;2023-01-30T03:18:33;8.40;;;1.27;;
13252;SDS011;6693;54.370;10.132;2023-01-30T03:19:34;7.38;;;1.00;;
13252;SDS011;6693;54.370;10.132;2023-01-30T03:20:37;11.07;;;1.80;;
13252;SDS011;6693;54.370;10.132;2023-01-30T03:21:39;8.45;;;2.17;;
13252;SDS011;6693;54.370;10.132;2023-01-30T03:22:43;7.90;;;1.83;;
13252;SDS011;6693;54.370;10.132;2023-01-30T03:23:44;8.35;;;1.17;;
13252;SDS011;6693;54.370;10.132;2023-01-30T03:24:48;7.65;;;0.80;;
13252;SDS011;6693;54.370;10.132;2023-01-30T03:25:49;7.35;;;1.45;;
13252;SDS011;6693;54.370;10.132;2023-01-30T03:26:53;8.07;;;1.48;;
13252;SDS011;6693;54.370;10.132;2023-01-30T03:27:55;7.72;;;1.38;;
13252;SDS011;6693;54.370;10.132;2023-01-30T03:28:59;9.82;;;1.88;;
13252;SDS011;6693;54.370;10.132;2023-01-30T03:29:59;7.63;;;0.80;;
13252;SDS011;6693;54.370;10.132;2023-01-30T03:31:03;9.60;;;1.17;;
13252;SDS011;6693;54.370;10.132;2023-01-30T03:32:04;10.40;;;1.60;;
13252;SDS011;6693;54.370;10.132;2023-01-30T03:33:10;7.68;;;1.30;;
13252;SDS011;6693;54.370;10.132;2023-01-30T03:34:10;8.77;;;1.30;;
13252;SDS011;6693;54.370;10.132;2023-01-30T03:35:13;8.60;;;1.73;;
13252;SDS011;6693;54.370;10.132;2023-01-30T03:36:16;9.43;;;1.52;;
13252;SDS011;6693;54.370;10.132;2023-01-30T03:37:19;5.63;;;1.48;;
13252;SDS011;6693;54.370;10.132;2023-01-30T03:38:20;8.85;;;1.55;;
13252;SDS011;6693;54.370;10.132;2023-01-30T03:39:23;8.15;;;1.35;;
13252;SDS011;6693;54.370;10.132;2023-01-30T03:40:24;7.30;;;1.35;;
13252;SDS011;6693;54.370;10.132;2023-01-30T03:41:27;11.50;;;2.05;;
13252;SDS011;6693;54.370;10.132;2023-01-30T03:42:28;9.30;;;1.58;;
13252;SDS011;6693;54.370;10.132;2023-01-30T03:43:32;10.20;;;1.95;;
13252;SDS011;6693;54.370;10.132;2023-01-30T03:44:35;7.63;;;1.30;;
13252;SDS011;6693;54.370;10.132;2023-01-30T03:45:36;9.52;;;2.42;;
13252;SDS011;6693;54.370;10.132;2023-01-30T03:46:39;10.02;;;1.85;;
13252;SDS011;6693;54.370;10.132;2023-01-30T03:47:39;10.15;;;2.10;;
13252;SDS011;6693;54.370;10.132;2023-01-30T03:48:45;7.80;;;0.75;;
13252;SDS011;6693;54.370;10.132;2023-01-30T03:49:46;11.70;;;1.42;;
13252;SDS011;6693;54.370;10.132;2023-01-30T03:50:49;9.52;;;1.83;;
13252;SDS011;6693;54.370;10.132;2023-01-30T03:51:49;10.10;;;1.05;;
13252;SDS011;6693;54.370;10.132;2023-01-30T03:52:52;10.95;;;0.90;;
13252;SDS011;6693;54.370;10.132;2023-01-30T03:53:53;7.97;;;1.05;;
13252;SDS011;6693;54.370;10.132;2023-01-30T03:54:56;8.52;;;1.17;;
13252;SDS011;6693;54.370;10.132;2023-01-30T03:55:57;12.38;;;1.90;;
13252;SDS011;6693;54.370;10.132;2023-01-30T03:57:00;7.65;;;1.05;;
13252;SDS011;6693;54.370;10.132;2023-01-30T03:58:00;10.73;;;1.75;;
13252;SDS011;6693;54.370;10.132;2023-01-30T03:59:04;8.43;;;1.45;;
13252;SDS011;6693;54.370;10.132;2023-01-30T04:00:05;8.38;;;1.25;;
13252;SDS011;6693;54.370;10.132;2023-01-30T04:01:09;7.65;;;0.60;;
13252;SDS011;6693;54.370;10.132;2023-01-30T04:02:09;6.72;;;1.45;;
13252;SDS011;6693;54.370;10.132;2023-01-30T04:03:13;9.95;;;1.75;;
13252;SDS011;6693;54.370;10.132;2023-01-30T04:04:17;11.40;;;1.90;;
13252;SDS011;6693;54.370;10.132;2023-01-30T04:05:20;13.68;;;1.65;;
13252;SDS011;6693;54.370;10.132;2023-01-30T04:06:21;7.25;;;1.83;;
13252;SDS011;6693;54.370;10.132;2023-01-30T04:07:24;9.98;;;1.80;;
13252;SDS011;6693;54.370;10.132;2023-01-30T04:08:24;9.25;;;2.33;;
13252;SDS011;6693;54.370;10.132;2023-01-30T04:09:28;13.10;;;2.28;;
13252;SDS011;6693;54.370;10.132;2023-01-30T04:10:28;9.13;;;1.73;;
13252;SDS011;6693;54.370;10.132;2023-01-30T04:11:31;11.20;;;2.00;;
13252;SDS011;6693;54.370;10.132;2023-01-30T04:12:32;12.60;;;1.23;;
13252;SDS011;6693;54.370;10.132;2023-01-30T04:13:35;12.80;;;1.75;;
13252;SDS011;6693;54.370;10.132;2023-01-30T04:14:36;8.30;;;1.77;;
13252;SDS011;6693;54.370;10.132;2023-01-30T04:15:39;10.52;;;1.88;;
13252;SDS011;6693;54.370;10.132;2023-01-30T04:16:39;11.73;;;2.17;;
13252;SDS011;6693;54.370;10.132;2023-01-30T04:17:43;10.02;;;2.00;;
13252;SDS011;6693;54.370;10.132;2023-01-30T04:18:44;11.68;;;1.85;;
13252;SDS011;6693;54.370;10.132;2023-01-30T04:19:49;9.85;;;2.08;;
13252;SDS011;6693;54.370;10.132;2023-01-30T04:20:50;9.00;;;1.52;;
13252;SDS011;6693;54.370;10.132;2023-01-30T04:21:53;7.70;;;1.35;;
13252;SDS011;6693;54.370;10.132;2023-01-30T04:22:54;12.75;;;0.95;;
13252;SDS011;6693;54.370;10.132;2023-01-30T04:23:57;10.85;;;2.08;;
13252;SDS011;6693;54.370;10.132;2023-01-30T04:24:58;14.13;;;2.03;;
13252;SDS011;6693;54.370;10.132;2023-01-30T04:26:01;16.40;;;2.05;;
13252;SDS011;6693;54.370;10.132;2023-01-30T04:27:01;14.20;;;1.63;;
13252;SDS011;6693;54.370;10.132;2023-01-30T04:28:05;9.48;;;1.75;;
13252;SDS011;6693;54.370;10.132;2023-01-30T04:29:05;8.30;;;1.00;;
13252;SDS011;6693;54.370;10.132;2023-01-30T04:30:09;10.77;;;1.90;;
13252;SDS011;6693;54.370;10.132;2023-01-30T04:31:10;11.27;;;1.90;;
13252;SDS011;6693;54.370;10.132;2023-01-30T04:32:13;7.57;;;0.90;;
13252;SDS011;6693;54.370;10.132;2023-01-30T04:33:14;7.57;;;1.85;;
13252;SDS011;6693;54.370;10.132;2023-01-30T04:34:17;10.80;;;2.03;;
13252;SDS011;6693;54.370;10.132;2023-01-30T04:35:20;9.82;;;1.70;;
13252;SDS011;6693;54.370;10.132;2023-01-30T04:36:23;8.38;;;0.90;;
13252;SDS011;6693;54.370;10.132;2023-01-30T04:37:28;11.15;;;1.80;;
13252;SDS011;6693;54.370;10.132;2023-01-30T04:38:29;8.77;;;1.88;;
13252;SDS011;6693;54.370;10.132;2023-01-30T04:39:33;10.00;;;1.73;;
13252;SDS011;6693;54.370;10.132;2023-01-30T04:40:33;10.63;;;1.27;;
13252;SDS011;6693;54.370;10.132;2023-01-30T04:41:36;10.85;;;1.98;;
13252;SDS011;6693;54.370;10.132;2023-01-30T04:42:37;11.43;;;2.45;;
13252;SDS011;6693;54.370;10.132;2023-01-30T04:43:40;9.02;;;1.95;;
13252;SDS011;6693;54.370;10.132;2023-01-30T04:44:41;11.32;;;2.08;;
13252;SDS011;6693;54.370;10.132;2023-01-30T04:45:44;8.32;;;1.30;;
13252;SDS011;6693;54.370;10.132;2023-01-30T04:46:45;9.75;;;2.00;;
13252;SDS011;6693;54.370;10.132;2023-01-30T04:47:49;11.60;;;1.60;;
13252;SDS011;6693;54.370;10.132;2023-01-30T04:48:49;13.35;;;2.28;;
13252;SDS011;6693;54.370;10.132;2023-01-30T04:49:52;15.02;;;2.45;;
13252;SDS011;6693;54.370;10.132;2023-01-30T04:50:55;12.32;;;1.83;;
13252;SDS011;6693;54.370;10.132;2023-01-30T04:51:59;10.63;;;1.70;;
13252;SDS011;6693;54.370;10.132;2023-01-30T04:52:59;12.15;;;2.15;;
13252;SDS011;6693;54.370;10.132;2023-01-30T04:54:02;9.98;;;1.80;;
13252;SDS011;6693;54.370;10.132;2023-01-30T04:55:04;8.70;;;1.80;;
13252;SDS011;6693;54.370;10.132;2023-01-30T04:56:07;14.18;;;2.22;;
13252;SDS011;6693;54.370;10.132;2023-01-30T04:57:08;9.82;;;1.95;;
13252;SDS011;6693;54.370;10.132;2023-01-30T04:58:11;10.05;;;0.90;;
13252;SDS011;6693;54.370;10.132;2023-01-30T04:59:12;11.00;;;1.45;;
13252;SDS011;6693;54.370;10.132;2023-01-30T05:00:15;10.02;;;1.95;;
13252;SDS011;6693;54.370;10.132;2023-01-30T05:01:20;12.98;;;1.95;;
13252;SDS011;6693;54.370;10.132;2023-01-30T05:02:24;10.65;;;1.83;;
13252;SDS011;6693;54.370;10.132;2023-01-30T05:03:25;13.95;;;1.35;;
13252;SDS011;6693;54.370;10.132;2023-01-30T05:04:28;17.10;;;2.63;;
13252;SDS011;6693;54.370;10.132;2023-01-30T05:05:28;14.90;;;1.85;;
13252;SDS011;6693;54.370;10.132;2023-01-30T05:06:34;16.60;;;2.20;;
13252;SDS011;6693;54.370;10.132;2023-01-30T05:07:38;13.95;;;2.35;;
13252;SDS011;6693;54.370;10.132;2023-01-30T05:08:38;13.68;;;1.83;;
13252;SDS011;6693;54.370;10.132;2023-01-30T05:09:41;16.83;;;2.38;;
13252;SDS011;6693;54.370;10.132;2023-01-30T05:10:45;13.23;;;1.70;;
13252;SDS011;6693;54.370;10.132;2023-01-30T05:11:45;20.55;;;1.80;;
13252;SDS011;6693;54.370;10.132;2023-01-30T05:12:48;12.73;;;2.67;;
13252;SDS011;6693;54.370;10.132;2023-01-30T05:13:49;11.30;;;2.92;;
13252;SDS011;6693;54.370;10.132;2023-01-30T05:14:52;14.85;;;2.55;;
13252;SDS011;6693;54.370;10.132;2023-01-30T05:15:53;9.25;;;2.15;;
13252;SDS011;6693;54.370;10.132;2023-01-30T05:16:56;12.82;;;2.05;;
13252;SDS011;6693;54.370;10.132;2023-01-30T05:17:57;13.85;;;2.80;;
13252;SDS011;6693;54.370;10.132;2023-01-30T05:19:00;10.20;;;2.35;;
13252;SDS011;6693;54.370;10.132;2023-01-30T05:20:00;11.95;;;2.22;;
13252;SDS011;6693;54.370;10.132;2023-01-30T05:21:04;15.55;;;2.78;;
13252;SDS011;6693;54.370;10.132;2023-01-30T05:22:08;18.70;;;3.78;;
13252;SDS011;6693;54.370;10.132;2023-01-30T05:23:12;10.52;;;2.33;;
13252;SDS011;6693;54.370;10.132;2023-01-30T05:24:12;18.30;;;2.55;;
13252;SDS011;6693;54.370;10.132;2023-01-30T05:25:15;9.73;;;2.22;;
13252;SDS011;6693;54.370;10.132;2023-01-30T05:26:16;17.05;;;2.75;;
13252;SDS011;6693;54.370;10.132;2023-01-30T05:27:19;13.85;;;2.78;;
13252;SDS011;6693;54.370;10.132;2023-01-30T05:28:20;12.25;;;2.05;;
13252;SDS011;6693;54.370;10.132;2023-01-30T05:29:23;17.27;;;2.88;;
13252;SDS011;6693;54.370;10.132;2023-01-30T05:30:26;6.93;;;1.30;;
13252;SDS011;6693;54.370;10.132;2023-01-30T05:31:27;17.38;;;2.03;;
13252;SDS011;6693;54.370;10.132;2023-01-30T05:32:30;16.55;;;2.38;;
13252;SDS011;6693;54.370;10.132;2023-01-30T05:33:30;12.27;;;2.00;;
13252;SDS011;6693;54.370;10.132;2023-01-30T05:34:34;15.30;;;2.17;;
13252;SDS011;6693;54.370;10.132;2023-01-30T05:35:37;11.30;;;2.53;;
13252;SDS011;6693;54.370;10.132;2023-01-30T05:36:37;10.70;;;2.40;;
13252;SDS011;6693;54.370;10.132;2023-01-30T05:37:43;12.90;;;2.17;;
13252;SDS011;6693;54.370;10.132;2023-01-30T05:38:44;13.63;;;1.80;;
13252;SDS011;6693;54.370;10.132;2023-01-30T05:39:48;12.10;;;2.00;;
13252;SDS011;6693;54.370;10.132;2023-01-30T05:40:56;12.77;;;2.25;;
13252;SDS011;6693;54.370;10.132;2023-01-30T05:41:59;14.18;;;1.90;;
13252;SDS011;6693;54.370;10.132;2023-01-30T05:43:00;13.75;;;2.25;;
13252;SDS011;6693;54.370;10.132;2023-01-30T05:44:03;12.95;;;1.73;;
13252;SDS011;6693;54.370;10.132;2023-01-30T05:45:05;11.15;;;1.52;;
13252;SDS011;6693;54.370;10.132;2023-01-30T05:46:09;15.73;;;2.33;;
13252;SDS011;6693;54.370;10.132;2023-01-30T05:47:11;14.70;;;2.40;;
13252;SDS011;6693;54.370;10.132;2023-01-30T05:48:14;10.20;;;1.48;;
13252;SDS011;6693;54.370;10.132;2023-01-30T05:49:15;13.45;;;1.95;;
13252;SDS011;6693;54.370;10.132;2023-01-30T05:50:18;11.82;;;1.92;;
13252;SDS011;6693;54.370;10.132;2023-01-30T05:51:19;13.85;;;2.05;;
13252;SDS011;6693;54.370;10.132;2023-01-30T05:52:23;11.93;;;2.25;;
13252;SDS011;6693;54.370;10.132;2023-01-30T05:53:27;11.00;;;1.63;;
13252;SDS011;6693;54.370;10.132;2023-01-30T05:54:33;13.30;;;2.67;;
13252;SDS011;6693;54.370;10.132;2023-01-30T05:55:34;14.80;;;2.45;;
13252;SDS011;6693;54.370;10.132;2023-01-30T05:56:37;11.43;;;2.28;;
13252;SDS011;6693;54.370;10.132;2023-01-30T05:57:38;10.13;;;1.92;;
13252;SDS011;6693;54.370;10.132;2023-01-30T05:58:41;12.55;;;2.08;;
13252;SDS011;6693;54.370;10.132;2023-01-30T05:59:42;11.63;;;1.65;;
13252;SDS011;6693;54.370;10.132;2023-01-30T06:00:45;12.25;;;2.10;;
13252;SDS011;6693;54.370;10.132;2023-01-30T06:01:46;15.05;;;2.50;;
13252;SDS011;6693;54.370;10.132;2023-01-30T06:02:49;11.15;;;1.88;;
13252;SDS011;6693;54.370;10.132;2023-01-30T06:03:49;12.60;;;2.65;;
13252;SDS011;6693;54.370;10.132;2023-01-30T06:04:53;7.97;;;1.38;;
13252;SDS011;6693;54.370;10.132;2023-01-30T06:05:53;11.88;;;1.65;;
13252;SDS011;6693;54.370;10.132;2023-01-30T06:06:57;13.93;;;2.13;;
13252;SDS011;6693;54.370;10.132;2023-01-30T06:07:57;19.15;;;2.45;;
13252;SDS011;6693;54.370;10.132;2023-01-30T06:09:03;10.63;;;1.73;;
13252;SDS011;6693;54.370;10.132;2023-01-30T06:10:04;9.32;;;2.25;;
13252;SDS011;6693;54.370;10.132;2023-01-30T06:11:08;12.52;;;2.08;;
13252;SDS011;6693;54.370;10.132;2023-01-30T06:12:10;8.50;;;2.45;;
13252;SDS011;6693;54.370;10.132;2023-01-30T06:13:13;14.00;;;2.13;;
13252;SDS011;6693;54.370;10.132;2023-01-30T06:14:14;14.50;;;2.35;;
13252;SDS011;6693;54.370;10.132;2023-01-30T06:15:17;13.25;;;2.15;;
13252;SDS011;6693;54.370;10.132;2023-01-30T06:16:17;13.05;;;2.08;;
13252;SDS011;6693;54.370;10.132;2023-01-30T06:17:21;11.57;;;1.67;;
13252;SDS011;6693;54.370;10.132;2023-01-30T06:18:24;11.52;;;2.05;;
13252;SDS011;6693;54.370;10.132;2023-01-30T06:19:25;13.30;;;2.10;;
13252;SDS011;6693;54.370;10.132;2023-01-30T06:20:28;9.18;;;1.58;;
13252;SDS011;6693;54.370;10.132;2023-01-30T06:21:29;17.50;;;2.53;;
13252;SDS011;6693;54.370;10.132;2023-01-30T06:22:32;10.75;;;1.83;;
13252;SDS011;6693;54.370;10.132;2023-01-30T06:23:33;16.73;;;2.25;;
13252;SDS011;6693;54.370;10.132;2023-01-30T06:24:40;9.23;;;1.45;;